Time;durP1;ratioP1;P1;durP2;ratioP2;P2;SDS_P1;SDS_P2;PMS_P1;PMS_P2;Temp;Humidity;BMP_temperature;BMP_pressure;BME280_temperature;BME280_humidity;BME280_pressure;Samples;Min_cycle;Max_cycle;Signal;HPM_P1;HPM_P2
2024/01/27 00:01:19;;;;;;;41.50;24.57;;;;;;;6.91;76.28;101816.94;5100116;28;20047;-82
2024/01/27 00:04:14;;;;;;;53.53;25.38;;;;;;;6.86;75.62;101821.22;5096261;28;20086;-81
2024/01/27 00:07:06;;;;;;;69.40;32.22;;;;;;;6.72;76.64;101825.50;5095161;28;20090;-82
2024/01/27 00:10:00;;;;;;;54.58;31.40;;;;;;;6.81;77.56;101831.19;5099924;28;20814;-81
2024/01/27 00:12:55;;;;;;;60.50;31.15;;;;;;;6.72;76.98;101833.59;5100049;28;20523;-82
2024/01/27 00:15:50;;;;;;;80.67;36.83;;;;;;;6.72;77.49;101838.19;5098700;28;20047;-80
2024/01/27 00:18:44;;;;;;;81.65;32.58;;;;;;;6.72;77.33;101839.00;5093185;28;20055;-81
2024/01/27 00:21:39;;;;;;;105.03;52.13;;;;;;;6.91;77.72;101835.88;5093621;28;20413;-81
2024/01/27 00:24:33;;;;;;;246.30;100.07;;;;;;;6.69;76.82;101834.13;5099460;28;20040;-80
2024/01/27 00:27:28;;;;;;;290.75;112.75;;;;;;;6.63;76.60;101845.16;5093805;28;20040;-80
2024/01/27 00:30:22;;;;;;;281.93;121.17;;;;;;;6.48;77.13;101835.06;5099854;28;20036;-82
2024/01/27 00:33:17;;;;;;;330.87;133.53;;;;;;;6.48;77.73;101832.38;5096834;28;20036;-80
2024/01/27 00:36:11;;;;;;;211.97;91.67;;;;;;;6.58;77.53;101837.84;5097970;28;20044;-80
2024/01/27 00:39:06;;;;;;;171.38;86.40;;;;;;;6.81;76.51;101836.59;5099469;28;20048;-81
2024/01/27 00:42:00;;;;;;;142.77;62.55;;;;;;;6.72;77.04;101832.78;5099463;28;20065;-80
2024/01/27 00:44:55;;;;;;;132.40;65.13;;;;;;;6.65;77.65;101837.63;5092486;28;20044;-82
2024/01/27 00:47:49;;;;;;;123.40;59.63;;;;;;;6.76;78.25;101839.28;5092642;28;20044;-81
2024/01/27 00:50:42;;;;;;;100.45;47.28;;;;;;;6.82;79.15;101839.06;5099100;28;20032;-80
2024/01/27 00:53:37;;;;;;;106.88;50.30;;;;;;;6.75;79.30;101843.91;5097529;28;20036;-80
2024/01/27 00:56:31;;;;;;;84.30;38.90;;;;;;;6.72;80.43;101844.41;5096193;28;20040;-80
2024/01/27 00:59:26;;;;;;;127.53;51.28;;;;;;;6.85;80.29;101843.97;5099225;28;20408;-82
2024/01/27 01:02:20;;;;;;;102.07;46.97;;;;;;;6.76;78.96;101842.00;5099104;28;20044;-81
2024/01/27 01:05:15;;;;;;;76.63;35.23;;;;;;;6.89;79.34;101855.06;5098728;28;20036;-81
2024/01/27 01:08:07;;;;;;;61.17;31.57;;;;;;;6.92;78.34;101856.41;5099205;28;20269;-80
2024/01/27 01:11:05;;;;;;;68.05;37.25;;;;;;;6.76;76.46;101861.72;5099000;28;20044;-80
2024/01/27 01:13:59;;;;;;;73.60;37.78;;;;;;;6.68;77.06;101859.53;5092151;28;20039;-80
2024/01/27 01:16:54;;;;;;;57.13;35.65;;;;;;;6.75;77.33;101864.72;5094666;28;20051;-81
2024/01/27 01:19:48;;;;;;;52.17;34.38;;;;;;;6.95;75.86;101875.63;5098874;28;20047;-81
2024/01/27 01:22:43;;;;;;;52.80;29.27;;;;;;;6.99;75.71;101875.91;5098850;28;20055;-80
2024/01/27 01:25:38;;;;;;;74.40;34.67;;;;;;;6.93;76.44;101879.66;5098158;28;20043;-78
2024/01/27 01:28:32;;;;;;;51.77;25.80;;;;;;;6.85;75.19;101889.09;5098996;28;20043;-81
2024/01/27 01:31:27;;;;;;;57.45;34.58;;;;;;;6.90;75.10;101905.34;5098842;28;20039;-81
2024/01/27 01:34:19;;;;;;;51.03;32.67;;;;;;;6.81;74.38;101880.69;5098997;28;20047;-80
2024/01/27 01:37:13;;;;;;;62.90;34.50;;;;;;;6.69;75.29;101881.97;5094049;28;20047;-81
2024/01/27 01:40:09;;;;;;;57.10;33.92;;;;;;;6.74;75.79;101890.09;5102724;28;20047;-80
2024/01/27 01:43:04;;;;;;;61.55;33.83;;;;;;;6.78;76.28;101883.91;5102500;28;20551;-80
2024/01/27 01:45:58;;;;;;;69.23;36.67;;;;;;;6.67;76.44;101894.91;5101062;28;20043;-80
2024/01/27 01:48:53;;;;;;;65.25;34.10;;;;;;;6.58;74.46;101882.97;5102505;28;20047;-80
2024/01/27 01:51:47;;;;;;;77.88;33.65;;;;;;;6.39;74.33;101888.78;5100517;28;20059;-79
2024/01/27 01:54:42;;;;;;;40.53;25.40;;;;;;;6.33;74.04;101891.69;5102264;28;20070;-79
2024/01/27 01:57:37;;;;;;;38.28;25.30;;;;;;;6.44;74.02;101896.13;5096153;28;20047;-79
2024/01/27 02:00:30;;;;;;;;;;;;;;;6.40;72.81;101909.31;5099833;28;20563;-80
2024/01/27 02:03:24;;;;;;;48.28;30.38;;;;;;;6.42;72.89;101906.34;5101911;28;19916;-79
2024/01/27 02:06:19;;;;;;;32.95;22.55;;;;;;;6.26;72.40;101891.09;5099267;28;20404;-81
2024/01/27 02:09:13;;;;;;;44.10;28.40;;;;;;;6.29;72.81;101879.78;5101948;28;20051;-79
2024/01/27 02:12:07;;;;;;;44.28;28.65;;;;;;;6.27;71.95;101890.03;5101862;28;20054;-79
2024/01/27 02:15:02;;;;;;;33.42;23.58;;;;;;;6.36;71.82;101896.56;5101837;28;20062;-80
2024/01/27 02:17:57;;;;;;;33.60;22.80;;;;;;;6.39;71.72;101893.38;5094861;28;20043;-80
2024/01/27 02:20:52;;;;;;;38.85;28.15;;;;;;;6.42;70.70;101909.06;5101870;28;20523;-82
2024/01/27 02:23:46;;;;;;;38.88;26.83;;;;;;;6.44;70.37;101918.53;5102156;28;20066;-81
2024/01/27 02:26:44;;;;;;;43.33;28.20;;;;;;;6.58;70.19;101910.00;5098679;28;20043;-80
2024/01/27 02:29:38;;;;;;;44.47;28.95;;;;;;;6.41;69.83;101904.72;5101812;28;20051;-80
2024/01/27 02:32:30;;;;;;;41.47;27.23;;;;;;;6.45;70.65;101908.53;5096486;28;20039;-80
2024/01/27 02:35:25;;;;;;;57.20;28.77;;;;;;;6.30;71.09;101909.22;5101143;28;20432;-80
2024/01/27 02:38:25;;;;;;;43.77;27.43;;;;;;;6.27;70.77;101906.22;5098334;28;20508;-80
2024/01/27 02:41:19;;;;;;;33.83;24.63;;;;;;;6.28;71.56;101903.28;5101422;28;20047;-79
2024/01/27 02:44:14;;;;;;;37.90;21.20;;;;;;;6.23;70.63;101907.81;5101488;28;20051;-81
2024/01/27 02:47:14;;;;;;;67.32;27.35;;;;;;;6.07;71.69;101901.47;5096161;28;20273;-80
2024/01/27 02:50:08;;;;;;;54.38;28.25;;;;;;;6.14;72.01;101902.06;5099302;28;20039;-80
2024/01/27 02:53:03;;;;;;;47.30;29.48;;;;;;;6.00;72.39;101898.97;5097485;28;20043;-81
2024/01/27 02:55:58;;;;;;;39.73;22.37;;;;;;;6.05;72.45;101897.38;5094587;28;20097;-80
2024/01/27 02:58:52;;;;;;;40.37;22.40;;;;;;;5.84;72.18;101899.84;5098277;28;20081;-80
2024/01/27 03:01:47;;;;;;;38.20;20.40;;;;;;;6.00;71.67;101895.44;5101220;28;20047;-79
2024/01/27 03:04:41;;;;;;;43.92;21.25;;;;;;;5.90;70.78;101895.34;5100838;28;20519;-81
2024/01/27 03:07:36;;;;;;;54.92;26.60;;;;;;;5.66;71.67;101894.81;5095288;28;20055;-82
2024/01/27 03:10:31;;;;;;;40.00;20.33;;;;;;;5.66;72.04;101889.41;5100828;28;20413;-80
2024/01/27 03:13:23;;;;;;;;;;;;;;;5.52;72.19;101893.56;5101472;28;20043;-77
2024/01/27 03:16:15;;;;;;;;;;;;;;;5.41;73.82;101889.13;5096575;28;20284;-77
2024/01/27 03:19:07;;;;;;;;;;;;;;;5.57;72.80;101897.16;5101251;28;19911;-76
2024/01/27 03:21:59;;;;;;;;;;;;;;;5.55;72.77;101895.75;5098984;28;19920;-76
2024/01/27 03:24:51;;;;;;;;;;;;;;;5.48;72.91;101914.03;5096174;28;19912;-75
2024/01/27 03:27:41;;;;;;;;;;;;;;;5.39;73.33;101910.13;5096340;28;19916;-77
2024/01/27 03:30:30;;;;;;;;;;;;;;;5.52;72.26;101905.19;5098231;28;19912;-77
2024/01/27 03:33:22;;;;;;;;;;;;;;;5.47;73.56;101909.69;5096487;28;19912;-76
2024/01/27 03:36:15;;;;;;;;;;;;;;;5.46;72.33;101918.84;5099348;28;19916;-78
2024/01/27 03:39:07;;;;;;;;;;;;;;;5.55;72.46;101926.25;5097041;28;19912;-77
2024/01/27 03:41:59;;;;;;;;;;;;;;;5.63;71.31;101916.91;5101065;28;19920;-78
2024/01/27 03:44:51;;;;;;;;;;;;;;;5.47;70.47;101907.81;5098450;28;19912;-76
2024/01/27 03:47:43;;;;;;;;;;;;;;;5.49;71.72;101939.91;5095204;28;19916;-77
2024/01/27 03:50:36;;;;;;;;;;;;;;;5.43;72.21;101922.88;5100052;28;19912;-76
2024/01/27 03:53:28;;;;;;;;;;;;;;;5.36;71.25;101911.44;5096541;28;19912;-78
2024/01/27 03:56:19;;;;;;;;;;;;;;;5.42;70.79;101915.03;5093629;28;19916;-79
2024/01/27 03:59:12;;;;;;;;;;;;;;;5.45;72.45;101926.13;5098161;28;19912;-77
2024/01/27 04:02:04;;;;;;;;;;;;;;;5.51;71.08;101908.94;5094675;28;19920;-77
2024/01/27 04:04:53;;;;;;;;;;;;;;;5.53;70.75;101916.78;5099246;28;19923;-77
2024/01/27 04:07:45;;;;;;;;;;;;;;;5.41;70.85;101908.81;5093846;28;19916;-79
2024/01/27 04:10:38;;;;;;;;;;;;;;;5.24;70.35;101916.13;5094866;28;19911;-76
2024/01/27 04:13:27;;;;;;;;;;;;;;;5.20;69.96;101922.28;5098328;28;19912;-77
2024/01/27 04:16:19;;;;;;;;;;;;;;;5.11;70.57;101913.81;5095319;28;19916;-77
2024/01/27 04:19:11;;;;;;;;;;;;;;;5.08;70.16;101920.50;5094927;28;19912;-77
2024/01/27 04:22:03;;;;;;;;;;;;;;;5.08;70.51;101925.09;5099319;28;20292;-78
2024/01/27 04:24:55;;;;;;;;;;;;;;;4.97;70.46;101923.34;5096953;28;19916;-77
2024/01/27 04:27:47;;;;;;;;;;;;;;;4.98;70.29;101925.75;5094420;28;20381;-77
2024/01/27 04:30:39;;;;;;;;;;;;;;;4.83;69.69;101920.16;5096605;28;19920;-78
2024/01/27 04:33:31;;;;;;;;;;;;;;;4.81;69.35;101921.47;5093706;28;19912;-77
2024/01/27 04:36:30;;;;;;;;;;;;;;;4.81;70.04;101926.88;5096417;28;19916;-77
2024/01/27 04:39:25;;;;;;;;;;;;;;;4.70;69.97;101923.19;5095448;28;19912;-77
2024/01/27 04:42:16;;;;;;;;;;;;;;;4.65;70.44;101925.81;5092760;28;19916;-76
2024/01/27 04:45:08;;;;;;;;;;;;;;;4.64;70.66;101916.09;5096570;28;19912;-77
2024/01/27 04:48:00;;;;;;;;;;;;;;;4.75;70.59;101909.81;5095003;28;19912;-77
2024/01/27 04:50:55;;;;;;;;;;;;;;;4.53;71.61;101906.22;5099947;28;20312;-77
2024/01/27 04:53:48;;;;;;;;;;;;;;;4.44;72.05;101902.31;5097252;28;19912;-77
2024/01/27 04:56:40;;;;;;;;;;;;;;;4.46;72.40;101917.19;5094433;28;20396;-77
2024/01/27 04:59:32;;;;;;;;;;;;;;;4.53;73.00;101914.31;5098350;28;20372;-77
2024/01/27 05:02:27;;;;;;;;;;;;;;;4.44;72.48;101921.97;5095828;28;19920;-77
2024/01/27 05:05:19;;;;;;;;;;;;;;;4.46;73.21;101922.56;5097996;28;19912;-76
2024/01/27 05:08:11;;;;;;;;;;;;;;;4.56;73.21;101928.13;5095797;28;19920;-77
2024/01/27 05:11:00;;;;;;;;;;;;;;;4.47;73.04;101928.78;5093956;28;19912;-77
2024/01/27 05:13:52;;;;;;;;;;;;;;;4.55;72.18;101928.34;5100145;28;19912;-77
2024/01/27 05:16:44;;;;;;;;;;;;;;;4.66;71.63;101930.97;5100392;28;19912;-77
2024/01/27 05:19:36;;;;;;;;;;;;;;;4.64;71.95;101926.88;5100221;28;19912;-76
2024/01/27 05:22:28;;;;;;;;;;;;;;;4.70;72.66;101939.38;5105045;28;19916;-77
2024/01/27 05:25:20;;;;;;;;;;;;;;;4.75;72.27;101942.13;5101179;28;19912;-79
2024/01/27 05:28:12;;;;;;;;;;;;;;;4.59;72.46;101942.97;5106162;28;19916;-76
2024/01/27 05:31:04;;;;;;;;;;;;;;;4.66;73.83;101949.00;5103187;28;19912;-78
2024/01/27 05:33:52;;;;;;;;;;;;;;;4.79;73.33;101951.34;5101952;28;19912;-78
2024/01/27 05:36:42;;;;;;;;;;;;;;;4.67;74.71;101948.75;5103874;28;19912;-77
2024/01/27 05:39:34;;;;;;;;;;;;;;;4.60;75.35;101949.97;5104313;28;19915;-76
2024/01/27 05:42:31;;;;;;;;;;;;;;;4.50;75.93;101949.81;5101382;28;19923;-77
2024/01/27 05:45:23;;;;;;;;;;;;;;;4.51;77.98;101940.69;5104668;28;20206;-76
2024/01/27 05:48:15;;;;;;;;;;;;;;;4.49;79.37;101932.84;5100369;28;19912;-76
2024/01/27 05:51:07;;;;;;;;;;;;;;;4.58;79.87;101946.69;5099449;28;19915;-76
2024/01/27 05:53:56;;;;;;;;;;;;;;;4.67;79.68;101969.50;5102254;28;19912;-76
2024/01/27 05:56:46;;;;;;;;;;;;;;;4.67;79.87;101951.44;5098235;28;19925;-77
2024/01/27 05:59:35;;;;;;;;;;;;;;;4.77;80.62;101949.97;5103501;28;19912;-77
2024/01/27 06:02:30;;;;;;;;;;;;;;;4.90;80.39;101946.94;5101406;28;19916;-77
2024/01/27 06:05:17;;;;;;;;;;;;;;;4.96;79.82;101949.47;5099130;28;19912;-77
2024/01/27 06:08:06;;;;;;;;;;;;;;;5.00;79.82;101949.78;5102557;28;19912;-77
2024/01/27 06:10:58;;;;;;;;;;;;;;;5.02;80.46;101947.66;5099213;28;20300;-77
2024/01/27 06:13:51;;;;;;;;;;;;;;;4.44;83.44;101956.19;5095151;28;19912;-79
2024/01/27 06:16:40;;;;;;;;;;;;;;;4.49;83.31;101954.38;5097623;28;19912;-78
2024/01/27 06:19:32;;;;;;;;;;;;;;;4.45;84.31;101952.44;5096805;28;20323;-78
2024/01/27 06:22:24;;;;;;;;;;;;;;;4.13;85.00;101952.13;5100002;28;20292;-79
2024/01/27 06:25:16;;;;;;;;;;;;;;;4.29;86.01;101968.31;5099321;28;19912;-78
2024/01/27 06:28:06;;;;;;;;;;;;;;;4.37;85.10;101971.69;5095459;28;19915;-78
2024/01/27 06:30:58;;;;;;;;;;;;;;;4.55;86.00;101966.06;5099319;28;19915;-78
2024/01/27 06:33:48;;;;;;;;;;;;;;;4.32;86.89;101976.97;5097458;28;20381;-78
2024/01/27 06:36:40;;;;;;;;;;;;;;;4.35;87.32;101982.69;5094586;28;19916;-80
2024/01/27 06:39:29;;;;;;;;;;;;;;;4.35;87.27;101987.25;5098464;28;19912;-78
2024/01/27 06:42:21;;;;;;;;;;;;;;;4.12;87.26;102002.44;5096231;28;19916;-77
2024/01/27 06:45:13;;;;;;;;;;;;;;;3.81;88.12;101995.66;5093834;28;20381;-78
2024/01/27 06:48:02;;;;;;;;;;;;;;;3.56;91.13;102002.38;5097796;28;20369;-78
2024/01/27 06:50:52;;;;;;;;;;;;;;;3.66;91.00;102007.97;5095829;28;19946;-78
2024/01/27 06:53:48;;;;;;;;;;;;;;;2.96;89.00;102011.53;5099661;28;19912;-77
2024/01/27 06:56:40;;;;;;;;;;;;;;;2.28;91.19;102008.50;5096864;28;19912;-79
2024/01/27 06:59:32;;;;;;;;;;;;;;;2.03;92.31;102002.47;5094736;28;19912;-78
2024/01/27 07:02:31;;;;;;;;;;;;;;;1.68;94.24;102013.81;5098730;28;20391;-79
2024/01/27 07:05:23;;;;;;;;;;;;;;;1.91;96.05;102015.81;5096431;28;19912;-77
2024/01/27 07:08:15;;;;;;;;;;;;;;;1.74;96.84;102006.72;5099851;28;20308;-78
2024/01/27 07:11:07;;;;;;;;;;;;;;;1.84;96.02;102019.59;5094696;28;19916;-78
2024/01/27 07:13:59;;;;;;;;;;;;;;;2.35;94.68;102024.50;5093744;28;19916;-78
2024/01/27 07:16:51;;;;;;;;;;;;;;;2.78;92.37;102006.28;5090637;28;19912;-77
2024/01/27 07:19:43;;;;;;;;;;;;;;;2.89;90.94;102020.78;5093222;28;19911;-78
2024/01/27 07:22:36;;;;;;;;;;;;;;;3.18;87.56;102010.97;5093253;28;19920;-77
2024/01/27 07:25:28;;;;;;;;;;;;;;;3.40;85.53;102010.13;5093523;28;19916;-77
2024/01/27 07:28:20;;;;;;;;;;;;;;;3.50;83.32;102014.13;5094383;28;20471;-77
2024/01/27 07:31:10;;;;;;;;;;;;;;;3.48;82.33;102008.97;5099984;28;19912;-76
2024/01/27 07:34:00;;;;;;;;;;;;;;;3.71;82.81;102024.22;5095432;28;19912;-78
2024/01/27 07:36:52;;;;;;;;;;;;;;;3.98;81.40;102022.63;5089150;28;19912;-78
2024/01/27 07:39:44;;;;;;;;;;;;;;;4.16;80.99;102019.78;5095978;28;19916;-77
2024/01/27 07:42:36;;;;;;;;;;;;;;;4.03;81.64;102019.22;5091651;28;19920;-79
2024/01/27 07:45:28;;;;;;;;;;;;;;;3.84;84.16;102023.97;5092707;28;20324;-78
2024/01/27 07:48:18;;;;;;;;;;;;;;;3.69;85.28;102045.19;5093081;28;19916;-77
2024/01/27 07:51:10;;;;;;;;;;;;;;;3.53;89.02;102040.50;5094990;28;19911;-78
2024/01/27 07:54:02;;;;;;;;;;;;;;;3.95;86.89;102041.97;5095480;28;20945;-79
2024/01/27 07:56:51;;;;;;;;;;;;;;;3.90;83.72;102041.88;5091317;28;19916;-78
2024/01/27 07:59:43;;;;;;;;;;;;;;;3.97;85.83;102042.53;5079382;28;19913;-78
2024/01/27 08:02:35;;;;;;;;;;;;;;;3.93;85.38;102046.75;5091425;28;20308;-79
2024/01/27 08:05:27;;;;;;;;;;;;;;;3.70;85.39;102039.56;5098306;28;19912;-81
2024/01/27 08:08:19;;;;;;;;;;;;;;;3.82;85.98;102039.53;5092410;28;19912;-86
2024/01/27 08:11:11;;;;;;;;;;;;;;;3.72;88.03;102044.69;5095458;28;20384;-82
2024/01/27 08:14:00;;;;;;;;;;;;;;;3.99;87.58;102051.19;5099321;28;19912;-80
2024/01/27 08:16:49;;;;;;;;;;;;;;;3.63;87.37;102046.13;5095230;28;19912;-79
2024/01/27 08:19:41;;;;;;;;;;;;;;;3.78;86.99;102044.56;5096642;28;20510;-81
2024/01/27 08:22:31;;;;;;;;;;;;;;;3.99;86.13;102050.38;5100032;28;19916;-80
2024/01/27 08:25:25;;;;;;;;;;;;;;;4.08;84.89;102057.00;5092239;28;20404;-81
2024/01/27 08:28:17;;;;;;;;;;;;;;;4.11;83.10;102059.25;5102091;28;19916;-81
2024/01/27 08:31:04;;;;;;;;;;;;;;;4.17;85.75;102055.56;5109222;28;20408;-80
2024/01/27 08:33:57;;;;;;;;;;;;;;;4.22;83.41;102043.03;5107435;28;19912;-79
2024/01/27 08:36:46;;;;;;;;;;;;;;;4.21;81.22;102046.78;5099102;28;19912;-80
2024/01/27 08:39:38;;;;;;;;;;;;;;;3.55;82.93;102046.50;5084890;28;19912;-83
2024/01/27 08:42:30;;;;;;;;;;;;;;;3.16;86.34;102048.00;5091448;28;19915;-81
2024/01/27 08:45:23;;;;;;;;;;;;;;;3.75;86.96;102049.63;5084945;28;19915;-84
2024/01/27 08:48:15;;;;;;;;;;;;;;;4.20;85.88;102057.78;5099433;28;20377;-82
2024/01/27 08:51:04;;;;;;;;;;;;;;;3.61;84.13;102053.59;5094398;28;19916;-81
2024/01/27 08:53:56;;;;;;;;;;;;;;;4.06;82.57;102048.38;5098209;28;20300;-81
2024/01/27 08:56:48;;;;;;;;;;;;;;;4.03;80.28;102054.22;5096109;28;19912;-81
2024/01/27 08:59:35;;;;;;;;;;;;;;;3.50;85.31;102067.88;5100066;28;19911;-83
2024/01/27 09:02:32;;;;;;;;;;;;;;;3.47;84.49;102055.72;5117734;28;19920;-85
2024/01/27 09:05:24;;;;;;;;;;;;;;;3.66;85.65;102061.78;5103522;28;19916;-84
2024/01/27 09:08:16;;;;;;;;;;;;;;;3.67;83.30;102075.00;5095771;28;19912;-83
2024/01/27 09:11:06;;;;;;;;;;;;;;;3.76;82.96;102067.38;5093196;28;19912;-83
2024/01/27 09:13:56;;;;;;;;;;;;;;;3.68;83.26;102070.44;5097263;28;19920;-82
2024/01/27 09:16:45;;;;;;;;;;;;;;;3.56;82.06;102085.75;5096482;28;20307;-80
2024/01/27 09:19:37;;;;;;;;;;;;;;;3.76;84.41;102105.84;5100050;28;19912;-82
2024/01/27 09:22:32;;;;;;;;;;;;;;;2.80;84.84;102103.53;5111918;28;19924;-80
2024/01/27 09:25:24;;;;;;;;;;;;;;;2.76;89.19;102105.06;5114325;28;19915;-82
2024/01/27 09:28:16;;;;;;;;;;;;;;;3.70;87.98;102111.38;5079480;28;19920;-83
2024/01/27 09:31:08;;;;;;;;;;;;;;;4.35;82.57;102103.88;5088084;28;19936;-83
2024/01/27 09:34:00;;;;;;;;;;;;;;;3.33;83.85;102106.22;5115959;28;19916;-82
2024/01/27 09:36:52;;;;;;;;;;;;;;;3.75;83.46;102108.78;5117190;28;19994;-81
2024/01/27 09:39:44;;;;;;;;;;;;;;;4.08;80.05;102114.34;5077753;28;19913;-81
2024/01/27 09:42:36;;;;;;;;;;;;;;;4.19;82.69;102115.38;5116088;28;20384;-80
2024/01/27 09:45:29;;;;;;;;;;;;;;;5.03;78.74;102113.72;5112514;28;19912;-84
2024/01/27 09:48:18;;;;;;;;;;;;;;;5.04;78.24;102112.66;5084902;28;19912;-82
2024/01/27 09:51:08;;;;;;;;;;;;;;;3.71;83.40;102129.94;5102288;28;19912;-82
2024/01/27 09:54:01;;;;;;;;;;;;;;;4.06;85.31;102126.41;5102154;28;19912;-83
2024/01/27 09:56:53;;;;;;;;;;;;;;;4.22;83.75;102139.13;5101480;28;20307;-80
2024/01/27 09:59:45;;;;;;;;;;;;;;;3.63;85.09;102126.81;5098382;28;19912;-81
2024/01/27 10:02:35;;;;;;;;;;;;;;;4.52;84.05;102137.03;5098501;28;19915;-81
2024/01/27 10:05:22;;;;;;;;;;;;;;;4.61;82.71;102132.09;5097393;28;19916;-81
2024/01/27 10:08:14;;;;;;;;;;;;;;;3.72;85.18;102142.34;5101888;28;20643;-80
2024/01/27 10:11:07;;;;;;;;;;;;;;;4.35;85.92;102146.13;5101516;28;20402;-81
2024/01/27 10:13:59;;;;;;;;;;;;;;;4.83;82.37;102157.28;5098749;28;20648;-81
2024/01/27 10:16:51;;;;;;;;;;;;;;;4.71;80.73;102151.97;5100066;28;19911;-81
2024/01/27 10:19:38;;;;;;;;;;;;;;;4.65;80.87;102146.72;5094422;28;19912;-82
2024/01/27 10:22:28;;;;;;;;;;;;;;;4.30;84.38;102149.53;5109010;28;19916;-82
2024/01/27 10:25:18;;;;;;;;;;;;;;;5.00;84.42;102150.06;5105611;28;20292;-80
2024/01/27 10:28:10;;;;;;;;;;;;;;;5.70;82.61;102149.59;5092950;28;19916;-80
2024/01/27 10:31:09;;;;;;;;;;;;;;;5.96;79.08;102146.22;5103329;28;19916;-82
2024/01/27 10:34:01;;;;;;;;;;;;;;;5.45;79.23;102141.09;5104781;28;19911;-83
2024/01/27 10:36:51;;;;;;;;;;;;;;;5.83;79.19;102162.75;5098071;28;19920;-82
2024/01/27 10:39:42;;;;;;;;;;;;;;;5.81;77.78;102143.28;5093272;28;19912;-80
2024/01/27 10:42:32;;;;;;;;;;;;;;;5.62;78.68;102131.13;5078027;28;19916;-78
2024/01/27 10:45:24;;;;;;;;;;;;;;;5.50;78.69;102138.47;5083136;28;19911;-81
2024/01/27 10:48:17;;;;;;;;;;;;;;;5.55;78.48;102163.66;5106169;28;19968;-83
2024/01/27 10:51:10;;;;;;;;;;;;;;;5.79;77.56;102158.88;5087145;28;19912;-82
2024/01/27 10:54:08;;;;;;;;;;;;;;;4.94;80.42;102152.91;5100273;28;19912;-80
2024/01/27 10:56:58;;;;;;;;;;;;;;;4.49;83.95;102164.47;5095543;28;19912;-78
2024/01/27 10:59:50;;;;;;;;;;;;;;;5.91;80.17;102148.84;5099317;28;19920;-77
2024/01/27 11:02:42;;;;;;;;;;;;;;;6.15;75.84;102164.81;5089807;28;19916;-83
2024/01/27 11:05:37;;;;;;;;;;;;;;;4.99;79.55;102174.56;5095576;28;19911;-81
2024/01/27 11:08:29;;;;;;;;;;;;;;;4.81;81.67;102170.22;5097206;28;19912;-78
2024/01/27 11:11:17;;;;;;;;;;;;;;;5.04;81.33;102161.19;5089064;28;19916;-79
2024/01/27 11:14:08;;;;;;;;;;;;;;;4.60;86.84;102160.91;5096904;28;19912;-77
2024/01/27 11:16:58;;;;;;;;;;;;;;;4.26;87.84;102178.00;5095568;28;19912;-79
2024/01/27 11:19:50;;;;;;;;;;;;;;;5.08;82.47;102189.28;5089751;28;20296;-80
2024/01/27 11:22:42;;;;;;;;;;;;;;;4.06;86.93;102172.19;5080328;28;20289;-80
2024/01/27 11:25:34;;;;;;;;;;;;;;;4.27;88.46;102180.44;5094662;28;19913;-81
2024/01/27 11:28:28;;;;;;;;;;;;;;;4.64;87.14;102188.19;5099324;28;19916;-80
2024/01/27 11:31:20;;;;;;;;;;;;;;;4.19;86.28;102177.28;5097538;28;19912;-80
2024/01/27 11:34:12;;;;;;;;;;;;;;;4.12;86.55;102166.66;5109517;28;19915;-82
2024/01/27 11:37:11;;;;;;;;;;;;;;;4.17;87.91;102177.53;5115887;28;19916;-77
2024/01/27 11:40:10;;;;;;;;;;;;;;;4.76;87.51;102186.28;5116649;28;19912;-78
2024/01/27 11:43:00;;;;;;;;;;;;;;;5.28;84.40;102194.25;5113625;28;19919;-82
2024/01/27 11:46:01;;;;;;;;;;;;;;;5.35;83.14;102179.53;5117769;28;20363;-79
2024/01/27 11:48:53;;;;;;;;;;;;;;;5.09;84.98;102180.97;5114890;28;19911;-79
2024/01/27 11:51:43;;;;;;;;;;;;;;;4.41;86.28;102186.38;5118616;28;20311;-77
2024/01/27 11:54:35;;;;;;;;;;;;;;;4.43;89.27;102192.34;5093557;28;19916;-82
2024/01/27 11:57:27;;;;;;;;;;;;;;;5.27;86.04;102208.78;5077859;28;19916;-80
2024/01/27 12:00:19;;;;;;;;;;;;;;;5.46;83.00;102197.50;5099964;28;19912;-77
2024/01/27 12:03:09;;;;;;;;;;;;;;;7.01;76.06;102192.88;5099071;28;19915;-78
2024/01/27 12:06:00;;;;;;;;;;;;;;;7.11;75.60;102193.00;5101002;28;19912;-78
2024/01/27 12:08:50;;;;;;;;;;;;;;;6.74;77.20;102190.97;5091094;28;20300;-77
2024/01/27 12:11:42;;;;;;;;;;;;;;;5.66;81.05;102190.81;5094208;28;19911;-77
2024/01/27 12:14:44;;;;;;;;;;;;;;;5.71;80.62;102185.47;5100076;28;19911;-80
2024/01/27 12:17:34;;;;;;;;;;;;;;;4.99;83.58;102182.66;5091961;28;19912;-79
2024/01/27 12:20:25;;;;;;;;;;;;;;;6.06;81.84;102182.53;5086346;28;19912;-80
2024/01/27 12:23:16;;;;;;;;;;;;;;;6.04;80.01;102192.78;5097232;28;19916;-79
2024/01/27 12:26:08;;;;;;;;;;;;;;;6.45;78.08;102206.56;5094786;28;19916;-80
2024/01/27 12:29:01;;;;;;;;;;;;;;;6.40;78.72;102194.84;5098899;28;19912;-79
2024/01/27 12:31:53;;;;;;;;;;;;;;;6.08;78.76;102177.69;5098429;28;19916;-80
2024/01/27 12:34:43;;;;;;;;;;;;;;;6.52;80.03;102187.47;5083252;28;19916;-81
2024/01/27 12:37:36;;;;;;;;;;;;;;;6.54;78.61;102181.81;5090896;28;19912;-78
2024/01/27 12:40:23;;;;;;;;;;;;;;;6.01;80.39;102178.69;5095542;28;19912;-79
2024/01/27 12:43:15;;;;;;;;;;;;;;;6.46;79.47;102185.75;5088074;28;20484;-80
2024/01/27 12:46:07;;;;;;;;;;;;;;;6.70;78.10;102179.03;5088348;28;19920;-79
2024/01/27 12:48:56;;;;;;;;;;;;;;;6.81;77.48;102175.34;5094414;28;19915;-79
2024/01/27 12:51:48;;;;;;;;;;;;;;;6.67;78.11;102171.41;5087680;28;19912;-79
2024/01/27 12:54:40;;;;;;;;;;;;;;;6.90;77.54;102169.50;5096230;28;19912;-79
2024/01/27 12:57:32;;;;;;;;;;;;;;;7.03;77.10;102169.09;5089389;28;19920;-82
2024/01/27 13:00:24;;;;;;;;;;;;;;;7.05;76.30;102172.38;5100005;28;19912;-78
2024/01/27 13:03:16;;;;;;;;;;;;;;;6.69;77.38;102161.19;5093735;28;19924;-79
2024/01/27 13:06:08;;;;;;;;;;;;;;;6.49;77.12;102155.53;5090142;28;19911;-79
2024/01/27 13:09:00;;;;;;;;;;;;;;;6.81;77.92;102169.94;5097145;28;19912;-78
2024/01/27 13:11:50;;;;;;;;;;;;;;;6.81;78.18;102167.25;5087592;28;20320;-78
2024/01/27 13:14:40;;;;;;;;;;;;;;;6.90;77.74;102169.50;5091206;28;19912;-80
2024/01/27 13:17:32;;;;;;;;;;;;;;;7.16;78.44;102174.09;5085397;28;19912;-79
2024/01/27 13:20:21;;;;;;;;;;;;;;;7.23;76.85;102170.09;5093819;28;19912;-79
2024/01/27 13:23:13;;;;;;;;;;;;;;;7.37;77.08;102165.06;5094736;28;19916;-78
2024/01/27 13:26:05;;;;;;;;;;;;;;;6.55;78.80;102176.16;5083500;28;20304;-79
2024/01/27 13:28:55;;;;;;;;;;;;;;;6.93;78.46;102187.91;5094983;28;19916;-78
2024/01/27 13:31:43;;;;;;;;;;;;;;;7.03;78.08;102186.13;5093933;28;19915;-80
2024/01/27 13:34:33;;;;;;;;;;;;;;;6.87;78.20;102179.75;5098372;28;19920;-77
2024/01/27 13:37:25;;;;;;;;;;;;;;;6.72;79.84;102179.59;5097132;28;19916;-79
2024/01/27 13:40:14;;;;;;;;;;;;;;;7.00;78.45;102197.47;5096332;28;19912;-79
2024/01/27 13:43:06;;;;;;;;;;;;;;;7.02;78.00;102187.19;5099270;28;19920;-78
2024/01/27 13:45:58;;;;;;;;;;;;;;;6.91;78.33;102171.94;5088972;28;19912;-78
2024/01/27 13:48:50;;;;;;;;;;;;;;;6.94;79.08;102187.66;5095069;28;19920;-79
2024/01/27 13:51:39;;;;;;;;;;;;;;;7.07;78.76;102199.94;5092329;28;19912;-78
2024/01/27 13:54:34;;;;;;;;;;;;;;;7.11;78.48;102193.78;5092724;28;19921;-78
2024/01/27 13:57:26;;;;;;;;;;;;;;;7.18;77.91;102183.56;5099887;28;20376;-78
2024/01/27 14:00:16;;;;;;;;;;;;;;;7.19;77.50;102190.63;5098705;28;19912;-79
2024/01/27 14:03:08;;;;;;;;;;;;;;;7.32;77.82;102184.78;5100553;28;19916;-80
2024/01/27 14:05:57;;;;;;;;;;;;;;;7.34;77.08;102192.66;5091137;28;19912;-79
2024/01/27 14:08:44;;;;;;;;;;;;;;;7.43;76.67;102196.50;5093965;28;19912;-77
2024/01/27 14:11:36;;;;;;;;;;;;;;;7.35;77.14;102186.16;5087739;28;19916;-79
2024/01/27 14:14:28;;;;;;;;;;;;;;;7.20;78.07;102202.25;5095032;28;20304;-78
2024/01/27 14:17:22;;;;;;;;;;;;;;;7.30;78.12;102207.78;5095616;28;19916;-77
2024/01/27 14:20:14;;;;;;;;;;;;;;;7.35;77.52;102202.41;5088251;28;19912;-78
2024/01/27 14:23:06;;;;;;;;;;;;;;;7.40;77.38;102188.91;5100659;28;19920;-79
2024/01/27 14:25:56;;;;;;;;;;;;;;;7.40;77.80;102196.22;5103160;28;20385;-78
2024/01/27 14:28:46;;;;;;;;;;;;;;;7.42;77.76;102200.28;5096764;28;19920;-78
2024/01/27 14:31:37;;;;;;;;;;;;;;;7.46;78.14;102201.44;5090913;28;19912;-79